Decoded Metar for SBBV (BOA VISTA in BRAZIL) (IATA:BVB) | Meteo·Mobile Aviation Weather
aviador You're here:

SBBV Decoded Metar

BOA VISTA in BRAZIL
Report Time2019-07-22 01:00:00
UTC Time2019-07-22 01:28:14
Flight Rules vfr VFR
Wind090° at 06 kt
W.Decomp.*RWY 08: 5.5 kt HW 2.4 kt RCW
Visibility9999 m
Phenomena:N/A
Clouds:N/A
Expected CloudBase > 1,600 ft AGL from Temp-Dew spread
CeilingNone
Temp27°C (ISA +13)
Dew Point23°C (79% RH)
Heat Index29.6°C
QNH1012 hPa
Density Alt2,352 ft
Elevation459 ft
Report Wrong Elevation
Raw Report
METAR SBBV 220100Z 09006KT CAVOK 27/23 Q1012=

Extra information for SBBV:More info

Metar Taf Metar & Taf Last 4 Metars F.Rules Stats Wind Profile Meteogram Temp Stats Airport Information Weather charts Add Link Nearby VenuesMetar ALERT Operation Metar Decoded Social comments